• Join FlightAware (Why Join?)
  • Login
  • US Flag GB Flag 
00:27 EDT


 

Airport Tracker/Info


-or-


 

Live Flight TrackerFlight Track Log ✈ N315CJ ✈ 25-Nov-2013 ✈ KORF - KYIP

Flight Track Log - Related Links

Times and Time Zones

All times are in EST time to prevent confusion due to time zone crossing. See the N315CJ flight status page for this flight to view local times or setup timezone preferences in your user account.

Time Position Orientation Groundspeed Altitude Reporting Facility
EST Latitude Longitude Course Direction KTS MPH feet Rate Location/Type
15:51 36.9056 -76.1894 360° North 196 226 1,200  Level Washington Center
15:52 36.9556 -76.1897 360° North 233 268 3,900 2,280 Climbing Washington Center
15:52 36.9661 -76.2028 315° West 230 265 3,900 60 Level Washington Center
15:53 36.9656 -76.2756 269° West 227 261 4,000 60 Climbing Washington Center
15:53 36.9656 -76.2808 270° West 230 265 4,000 3,960 Level Washington Center
15:54 36.9672 -76.3536 272° West 245 282 7,600 3,720 Climbing Washington Center
15:54 36.9672 -76.3639 270° West 245 282 7,800 3,780 Climbing Washington Center
15:55 36.9731 -76.4419 275° West 261 300 11,500 3,900 Climbing Washington Center
15:55 36.9728 -76.4550 268° West 257 296 11,700 3,720 Climbing Washington Center
15:56 36.9828 -76.5278 280° West 251 289 15,300 3,780 Climbing Washington Center
15:56 36.9867 -76.5408 290° West 257 296 15,400 600 Climbing Washington Center
15:57 36.9964 -76.6294 287° West 292 336 16,000 600 Climbing Washington Center
15:58 37.0081 -76.7311 278° West 292 336 16,700 2,040 Climbing Washington Center
16:00 37.0149 -76.8643 274° West  Level FlightAware Approximate
16:00 37.0311 -76.9239 274° West 287 330 22,300  Level Washington Center
16:01 37.0425 -77.0178 279° West 282 325 25,300 1,860 Climbing Washington Center
16:02 37.0414 -77.1192 269° West 282 325 26,000 660 Climbing Washington Center
16:03 37.0275 -77.2283 261° West 303 349 26,700 840 Climbing Washington Center
16:04 37.0469 -77.3303 283° West 298 343 27,700 1,500 Climbing Washington Center
16:05 37.1208 -77.4047 321° Northwest 298 343 29,800 2,520 Climbing Washington Center
16:06 37.1864 -77.4767 319° Northwest 303 349 32,900 2,460 Climbing Washington Center
16:07 37.2461 -77.5356 322° Northwest 292 336 34,700 1,800 Climbing Washington Center
16:08 37.3097 -77.6025 320° Northwest 292 336 36,500 1,380 Climbing Washington Center
16:09 37.3731 -77.6694 320° Northwest 292 336 37,600 720 Climbing Washington Center
16:10 37.4428 -77.7394 321° Northwest 306 352 38,000 180 Climbing Washington Center
16:11 37.5122 -77.8172 318° Northwest 317 365 38,000 300 Level Washington Center
16:12 37.5839 -77.8875 322° Northwest 324 373 38,700 480 Climbing Washington Center
16:13 37.6556 -77.9606 321° Northwest 324 373 39,000 120 Climbing Washington Center
16:14 37.7231 -78.0361 318° Northwest 329 379 39,000  Level Washington Center
16:15 37.7944 -78.1094 321° Northwest 329 379 39,000  Level Washington Center
16:16 37.8514 -78.1692 320° Northwest 329 379 39,000 480 Level Washington Center
16:17 37.9372 -78.2564 321° Northwest 335 386 40,000 480 Climbing Washington Center
16:18 38.0064 -78.3325 319° Northwest 329 379 40,000  Level Washington Center
16:19 38.0653 -78.4006 318° Northwest 329 379 40,000 360 Level Washington Center
16:20 38.1344 -78.4772 319° Northwest 329 379 40,800 900 Climbing Washington Center
16:21 38.2097 -78.5514 322° Northwest 336 387 41,900 900 Climbing Washington Center
16:22 38.2869 -78.6339 320° Northwest 336 387 42,600 960 Climbing Washington Center
16:23 38.3394 -78.6969 317° Northwest 323 372 43,900 1,140 Climbing Washington Center
16:24 38.4044 -78.7686 319° Northwest 313 360 44,900 540 Climbing Washington Center
16:25 38.4733 -78.8403 321° Northwest 308 354 45,000  Climbing Washington Center
16:26 38.5422 -78.9150 320° Northwest 313 360 45,000  Level Washington Center
16:27 38.6131 -78.9928 319° Northwest 318 366 45,000  Level Washington Center
16:28 38.6817 -79.0675 320° Northwest 324 373 45,000  Level Washington Center
16:29 38.7506 -79.1428 320° Northwest 324 373 45,000  Level Washington Center
16:30 38.8192 -79.2206 319° Northwest 324 373 45,000  Level Washington Center
16:32 38.9753 -79.3889 320° Northwest 332 382 45,000  Level Cleveland Center
16:33 39.0447 -79.4656 319° Northwest 332 382 45,000  Level Cleveland Center
16:34 39.1139 -79.5436 319° Northwest 331 381 45,000  Level Cleveland Center
16:36 39.1814 -79.6217 318° Northwest 329 379 45,000  Level Cleveland Center
16:37 39.2522 -79.6989 320° Northwest 331 381 45,000  Level Cleveland Center
16:38 39.3214 -79.7717 321° Northwest 327 376 45,000  Level Cleveland Center
16:39 39.4036 -79.8697 317° Northwest 331 381 45,000 -420 Level Cleveland Center
16:40 39.4733 -79.9436 321° Northwest 329 379 44,200 -1,020 Descending Cleveland Center
16:41 39.5406 -80.0206 319° Northwest 325 374 42,900 -1,320 Descending Cleveland Center
16:42 39.6056 -80.0983 317° Northwest 320 368 41,500 -1,440 Descending Cleveland Center
16:43 39.6756 -80.1764 319° Northwest 327 376 40,000 -1,500 Descending Cleveland Center
16:44 39.7403 -80.2511 318° Northwest 316 364 38,500 -1,500 Descending Cleveland Center
16:45 39.8089 -80.3281 319° Northwest 274 315 37,000 -780 Descending Cleveland Center
16:46 39.8686 -80.3969 318° Northwest 285 328 37,000 -600 Level Cleveland Center
16:47 39.9292 -80.4658 319° Northwest 287 330 35,800 -1,080 Descending Cleveland Center
16:48 39.9853 -80.5317 318° Northwest 274 315 34,800 -1,020 Descending Cleveland Center
16:49 40.0450 -80.6014 318° Northwest 285 328 33,700 -900 Descending Cleveland Center
16:50 40.1097 -80.6753 319° Northwest 304 350 33,000 -540 Descending Cleveland Center
16:51 40.1758 -80.7517 319° Northwest 314 361 32,600 -780 Descending Cleveland Center
16:52 40.2539 -80.8431 318° Northwest 315 362 31,500 -1,080 Descending Cleveland Center
16:53 40.3233 -80.9239 318° Northwest 328 377 30,400 -780 Descending Cleveland Center
16:54 40.3947 -81.0075 318° Northwest 340 391 30,000 -240 Descending Cleveland Center
16:55 40.4661 -81.0897 319° Northwest 341 392 30,000  Level Cleveland Center
16:56 40.5364 -81.1739 318° Northwest 343 395 30,000  Level Cleveland Center
16:57 40.6167 -81.2669 319° Northwest 348 400 30,000  Level Cleveland Center
16:58 40.6886 -81.3539 318° Northwest 347 399 30,000  Level Cleveland Center
16:59 40.7606 -81.4392 318° Northwest 344 396 30,000 -780 Level Cleveland Center
17:00 40.8297 -81.5219 318° Northwest 335 386 28,500 -1,500 Descending Cleveland Center
17:01 40.8953 -81.6006 318° Northwest 320 368 26,900 -1,500 Descending Cleveland Center
17:02 40.9628 -81.6822 318° Northwest 323 372 25,400 -1,440 Descending Cleveland Center
17:03 41.0458 -81.7822 318° Northwest 339 390 24,000 -720 Descending Cleveland Center
17:04 41.1150 -81.8644 318° Northwest 330 380 24,000  Level Cleveland Center
17:05 41.1856 -81.9511 317° Northwest 335 386 24,000  Level Cleveland Center
17:07 41.2550 -82.0356 318° Northwest 339 390 24,000 -780 Level Cleveland Center
17:08 41.3239 -82.1183 318° Northwest 329 379 22,500 -1,620 Descending Cleveland Center
17:09 41.3944 -82.1969 320° Northwest 326 375 20,700 -1,860 Descending Cleveland Center
17:10 41.4717 -82.2694 325° Northwest 334 384 18,700 -1,620 Descending Cleveland Center
17:11 41.5414 -82.3336 325° Northwest 304 350 17,400 -1,680 Descending Cleveland Center
17:11 41.6058 -82.3958 324° Northwest 299 344 15,600 -1,800 Descending Cleveland Center
17:12 41.6097 -82.3986 332° Northwest 297 342 15,600 -1,320 Level Cleveland Center
17:13 41.6794 -82.4661 324° Northwest 301 346 14,000 -1,800 Descending Cleveland Center
17:13 41.7000 -82.4858 324° Northwest 298 343 13,400 -1,680 Descending Cleveland Center
17:14 41.7450 -82.5294 324° Northwest 293 337 12,300 -1,500 Descending Cleveland Center
17:14 41.7647 -82.5469 327° Northwest 289 333 11,900 -1,680 Descending Cleveland Center
17:15 41.8197 -82.5997 324° Northwest 271 312 10,600 -1,500 Descending Cleveland Center
17:15 41.8292 -82.6111 318° Northwest 259 298 10,400 -780 Descending Cleveland Center
17:16 41.8675 -82.6611 316° Northwest 243 280 9,900 -600 Descending Cleveland Center
17:16 41.8714 -82.6617 354° North 253 291 9,900 -1,320 Level Cleveland Center
17:17 41.9100 -82.7367 305° West 243 280 8,600 -1,260 Descending Cleveland Center
17:17 41.9092 -82.7367 180° South 244 281 8,600 -1,140 Level Cleveland Center
17:18 41.9489 -82.8064 307° West 239 275 7,400 -1,260 Descending Cleveland Center
17:18 41.9525 -82.8150 299° West 234 269 7,300 -780 Descending Cleveland Center
17:19 41.9853 -82.8739 307° West 228 262 6,600 -900 Descending Cleveland Center
17:20 42.0244 -82.9453 306° West 229 264 5,600 -1,020 Descending Cleveland Center
17:20 42.0250 -82.9422 76° East 230 265 5,600 -540 Level Cleveland Center
17:21 42.0692 -83.0244 306° West 227 261 5,000 -300 Descending Cleveland Center
17:22 42.1050 -83.0883 307° West 219 252 5,000  Level Cleveland Center
17:23 42.1406 -83.1553 306° West 219 252 5,000  Level Cleveland Center
17:23 42.1417 -83.1547 20° North 220 253 5,000  Level Cleveland Center
17:24 42.1778 -83.2194 307° West 220 253 5,000  Level Cleveland Center
17:24 42.1778 -83.2206 270° West 220 253 5,000  Level Cleveland Center
17:25 42.2111 -83.2814 307° West 208 239 5,000  Level Cleveland Center
17:26 42.2417 -83.3411 305° West 177 204 5,000  Level Cleveland Center
17:26 42.2414 -83.3375 96° East 193 222 5,000  Level Cleveland Center
17:27 42.2692 -83.3903 305° West 146 168 5,000 60 Level Cleveland Center
17:27 42.2742 -83.3956 322° Northwest 167 192 5,100 60 Climbing Cleveland Center
17:28 42.2894 -83.4269 303° West 107 123 5,100 -120 Level Cleveland Center
17:28 42.2919 -83.4297 321° Northwest 122 140 5,000 -780 Descending Cleveland Center
17:29 42.3056 -83.4603 301° West 130 150 4,400 -780 Descending Cleveland Center
17:29 42.3089 -83.4661 308° West 117 135 4,200 -1,140 Descending Cleveland Center
17:30 42.3347 -83.4644 North 201 231 3,400 -1,080 Descending Cleveland Center
17:30 42.3369 -83.4439 82° East 161 185 3,100 -360 Descending Cleveland Center
17:31 42.3114 -83.4414 176° South 112 129 3,000 -120 Descending Cleveland Center
17:31 42.3061 -83.4397 167° South 138 159 3,000 -840 Level Cleveland Center
17:32 42.2869 -83.4575 214° Southwest 87 100 2,200 -1,080 Descending Cleveland Center
17:32 42.2814 -83.4661 229° Southwest 108 124 1,900 -540 Descending Cleveland Center
17:33 42.2725 -83.4808 231° Southwest 87 100 1,700 -420 Descending Cleveland Center
17:33 42.2678 -83.4867 222° Southwest 95 109 1,500 -600 Descending Cleveland Center
17:34 42.2539 -83.5064 226° Southwest 88 101 1,100 -540 Descending Cleveland Center
17:34 42.2508 -83.5108 227° Southwest 89 102 1,000 -240 Descending Cleveland Center